createdAt,value
2018-07-13T00:02:59.598Z,20.90
2018-07-13T00:06:32.833Z,20.80
2018-07-13T00:10:06.327Z,20.70
2018-07-13T00:13:48.696Z,20.70
2018-07-13T00:24:27.977Z,20.70
2018-07-13T00:31:34.582Z,20.60
2018-07-13T00:42:13.804Z,20.40
2018-07-13T00:45:47.045Z,20.40
2018-07-13T00:49:20.282Z,20.30
2018-07-13T00:52:53.541Z,20.30
2018-07-13T00:56:26.772Z,20.20
2018-07-13T01:00:00.017Z,20.20
2018-07-13T01:03:33.272Z,20.10
2018-07-13T01:10:39.504Z,20.00
2018-07-13T01:14:12.754Z,20.00
2018-07-13T01:17:46.014Z,19.90
2018-07-13T01:21:19.253Z,19.90
2018-07-13T01:24:52.520Z,19.80
2018-07-13T01:28:25.764Z,19.80
2018-07-13T01:35:32.032Z,19.80
2018-07-13T01:39:08.375Z,19.80
2018-07-13T01:42:41.652Z,19.80
2018-07-13T01:46:14.883Z,19.70
2018-07-13T01:49:48.135Z,19.70
2018-07-13T01:53:21.365Z,19.60
2018-07-13T01:56:54.592Z,19.50
2018-07-13T02:00:27.856Z,19.40
2018-07-13T02:04:01.092Z,19.20
2018-07-13T02:07:34.468Z,19.10
2018-07-13T02:11:07.706Z,19.00
2018-07-13T02:14:40.943Z,19.00
2018-07-13T02:18:14.156Z,19.00
2018-07-13T02:21:47.380Z,18.90
2018-07-13T02:25:20.638Z,19.00
2018-07-13T02:28:53.873Z,18.90
2018-07-13T02:32:27.097Z,19.00
2018-07-13T02:36:00.414Z,19.00
2018-07-13T02:39:33.808Z,18.90
2018-07-13T02:43:07.040Z,18.90
2018-07-13T02:46:40.304Z,18.90
2018-07-13T02:50:13.564Z,18.90
2018-07-13T02:53:46.820Z,18.80
2018-07-13T02:57:20.037Z,18.80
2018-07-13T03:00:53.369Z,18.70
2018-07-13T03:04:26.617Z,18.70
2018-07-13T03:07:59.864Z,18.60
2018-07-13T03:11:33.100Z,18.50
2018-07-13T03:15:06.542Z,18.50
2018-07-13T03:18:39.770Z,18.40
2018-07-13T03:22:13.047Z,18.40
2018-07-13T03:25:46.285Z,18.40
2018-07-13T03:29:19.530Z,18.40
2018-07-13T03:32:52.764Z,18.40
2018-07-13T03:36:25.992Z,18.40
2018-07-13T03:39:59.238Z,18.30
2018-07-13T03:43:32.490Z,18.30
2018-07-13T03:47:05.752Z,18.20
2018-07-13T03:50:39.005Z,18.10
2018-07-13T03:54:12.322Z,18.20
2018-07-13T03:57:45.502Z,18.20
2018-07-13T04:01:18.729Z,18.20
2018-07-13T04:08:24.981Z,18.20
2018-07-13T04:11:58.220Z,18.30
2018-07-13T04:15:31.469Z,18.30
2018-07-13T04:19:05.050Z,18.40
2018-07-13T04:22:38.369Z,18.50
2018-07-13T04:26:11.680Z,18.60
2018-07-13T04:29:45.069Z,18.70
2018-07-13T04:33:18.409Z,18.80
2018-07-13T04:36:51.679Z,18.90
2018-07-13T04:40:24.930Z,18.90
2018-07-13T04:43:58.200Z,19.00
2018-07-13T04:47:31.490Z,19.00
2018-07-13T04:51:04.754Z,19.10
2018-07-13T04:54:38.022Z,19.10
2018-07-13T04:58:11.658Z,19.10
2018-07-13T05:05:17.970Z,19.10
2018-07-13T05:08:51.273Z,19.10
2018-07-13T05:12:24.640Z,19.10
2018-07-13T05:19:31.632Z,19.20
2018-07-13T05:23:04.910Z,19.30
2018-07-13T05:26:38.216Z,19.40
2018-07-13T05:30:11.477Z,19.40
2018-07-13T05:33:44.745Z,19.50
2018-07-13T05:37:18.009Z,19.60
2018-07-13T05:40:51.340Z,19.70
2018-07-13T05:47:57.713Z,19.90
2018-07-13T05:51:31.005Z,20.00
2018-07-13T05:55:04.313Z,20.20
2018-07-13T05:58:37.575Z,20.40
2018-07-13T06:02:10.849Z,20.60
2018-07-13T06:05:44.120Z,20.70
2018-07-13T06:09:17.407Z,20.70
2018-07-13T06:12:50.928Z,20.70
2018-07-13T06:16:24.168Z,20.70
2018-07-13T06:27:03.443Z,20.90
2018-07-13T06:30:36.693Z,21.00
2018-07-13T06:34:09.955Z,21.10
2018-07-13T06:41:16.200Z,21.20
2018-07-13T06:44:49.501Z,21.40
2018-07-13T06:48:22.785Z,21.50
2018-07-13T06:51:56.142Z,21.60
2018-07-13T06:55:29.412Z,21.80
2018-07-13T06:59:16.997Z,21.90
2018-07-13T07:02:50.252Z,22.10
2018-07-13T07:06:24.021Z,22.20
2018-07-13T07:09:58.428Z,22.40
2018-07-13T07:13:33.621Z,22.50
2018-07-13T07:17:06.860Z,22.70
2018-07-13T07:20:40.101Z,22.80
2018-07-13T07:24:13.377Z,22.90
2018-07-13T07:31:19.677Z,23.10
2018-07-13T07:38:26.276Z,23.20
2018-07-13T07:41:59.488Z,23.30
2018-07-13T07:45:32.756Z,23.40
2018-07-13T07:49:06.017Z,23.50
2018-07-13T07:52:39.269Z,23.50
2018-07-13T07:56:12.533Z,23.60
2018-07-13T07:59:45.787Z,23.60
2018-07-13T08:03:19.025Z,23.60
2018-07-13T08:06:52.616Z,23.70
2018-07-13T08:10:25.594Z,23.80
2018-07-13T08:13:59.151Z,23.90
2018-07-13T08:21:05.160Z,24.10
2018-07-13T08:24:38.425Z,24.30
2018-07-13T08:28:11.758Z,24.50
2018-07-13T08:31:44.994Z,24.60
2018-07-13T08:35:18.253Z,24.80
2018-07-13T08:38:51.504Z,25.00
2018-07-13T08:42:24.804Z,25.20
2018-07-13T08:45:58.113Z,25.40
2018-07-13T08:49:31.311Z,25.50
2018-07-13T08:53:04.564Z,25.60
2018-07-13T09:00:10.913Z,25.70
2018-07-13T09:03:44.151Z,25.70
2018-07-13T09:07:17.384Z,25.70
2018-07-13T09:10:50.664Z,25.70
2018-07-13T09:17:56.912Z,25.80
2018-07-13T09:21:30.181Z,25.80
2018-07-13T09:25:03.448Z,25.80
2018-07-13T09:28:36.708Z,25.80
2018-07-13T09:32:09.943Z,25.80
2018-07-13T09:35:43.198Z,25.90
2018-07-13T09:39:16.433Z,25.90
2018-07-13T09:42:49.696Z,26.00
2018-07-13T09:46:22.948Z,26.10
2018-07-13T09:49:56.213Z,26.20
2018-07-13T09:53:29.475Z,26.20
2018-07-13T10:00:41.212Z,26.30
2018-07-13T10:04:14.376Z,26.30
2018-07-13T10:11:20.653Z,26.40
2018-07-13T10:14:53.984Z,26.50
2018-07-13T10:18:27.257Z,26.60
2018-07-13T10:22:00.678Z,26.70
2018-07-13T10:25:33.976Z,26.90
2018-07-13T10:29:09.969Z,27.00
2018-07-13T10:32:44.817Z,27.10
2018-07-13T10:36:19.740Z,27.30
2018-07-13T10:39:52.987Z,27.50
2018-07-13T10:43:26.274Z,27.50
2018-07-13T10:46:59.531Z,27.50
2018-07-13T10:50:32.803Z,27.50
2018-07-13T10:54:06.069Z,27.60
2018-07-13T10:57:39.336Z,27.60
2018-07-13T11:01:12.613Z,27.60
2018-07-13T11:04:45.885Z,27.60
2018-07-13T11:08:19.126Z,27.60
2018-07-13T11:11:52.384Z,27.50
2018-07-13T11:15:25.643Z,27.30
2018-07-13T11:18:58.991Z,27.10
2018-07-13T11:22:32.256Z,27.00
2018-07-13T11:26:05.533Z,27.00
2018-07-13T11:29:38.850Z,27.20
2018-07-13T11:33:12.056Z,27.30
2018-07-13T11:36:45.421Z,27.50
2018-07-13T11:40:19.239Z,27.50
2018-07-13T11:43:52.486Z,27.60
2018-07-13T11:47:25.730Z,27.50
2018-07-13T11:50:58.996Z,27.60
2018-07-13T11:54:32.277Z,27.70
2018-07-13T11:58:05.549Z,27.80
2018-07-13T12:05:11.801Z,28.10
2018-07-13T12:08:45.084Z,28.30
2018-07-13T12:12:18.316Z,28.50
2018-07-13T12:15:51.577Z,28.70
2018-07-13T12:19:24.804Z,29.00
2018-07-13T12:22:58.101Z,29.10
2018-07-13T12:26:31.354Z,29.10
2018-07-13T12:30:04.651Z,29.20
2018-07-13T12:33:37.920Z,29.20
2018-07-13T12:37:11.198Z,29.20
2018-07-13T12:40:44.462Z,29.20
2018-07-13T12:44:17.700Z,29.20
2018-07-13T12:47:50.947Z,28.90
2018-07-13T12:51:24.212Z,28.70
2018-07-13T12:54:57.632Z,28.50
2018-07-13T12:58:30.892Z,28.40
2018-07-13T13:02:04.124Z,28.50
2018-07-13T13:05:37.425Z,28.50
2018-07-13T13:09:10.638Z,28.50
2018-07-13T13:12:43.892Z,28.40
2018-07-13T13:16:17.152Z,28.40
2018-07-13T13:19:50.424Z,28.50
2018-07-13T13:23:23.681Z,28.60
2018-07-13T13:26:56.961Z,28.70
2018-07-13T13:30:30.288Z,28.70
2018-07-13T13:34:03.547Z,28.70
2018-07-13T13:41:09.829Z,28.90
2018-07-13T13:44:43.121Z,29.00
2018-07-13T13:48:16.381Z,29.20
2018-07-13T13:51:49.645Z,29.40
2018-07-13T13:58:55.880Z,29.90
2018-07-13T14:02:29.148Z,30.00
2018-07-13T14:06:02.396Z,30.20
2018-07-13T14:09:35.648Z,30.40
2018-07-13T14:23:47.913Z,30.10
2018-07-13T14:27:21.157Z,30.00
2018-07-13T14:30:54.400Z,30.20
2018-07-13T14:34:27.760Z,30.50
2018-07-13T14:38:00.988Z,31.00
2018-07-13T14:41:34.256Z,31.40
2018-07-13T14:45:07.486Z,31.90
2018-07-13T14:48:40.740Z,32.20
2018-07-13T14:52:13.969Z,32.30
2018-07-13T14:55:47.213Z,32.00
2018-07-13T15:06:26.575Z,31.70
2018-07-13T15:09:59.732Z,31.20
2018-07-13T15:13:33.331Z,30.60
2018-07-13T15:17:06.587Z,29.90
2018-07-13T15:20:40.028Z,29.30
2018-07-13T15:24:13.638Z,28.80
2018-07-13T15:31:20.109Z,28.00
2018-07-13T15:34:53.356Z,27.50
2018-07-13T15:38:26.596Z,27.20
2018-07-13T15:41:59.860Z,27.20
2018-07-13T15:45:33.115Z,27.60
2018-07-13T15:49:06.398Z,27.90
2018-07-13T15:52:39.652Z,28.00
2018-07-13T15:56:12.920Z,27.80
2018-07-13T15:59:46.184Z,27.80
2018-07-13T16:03:19.440Z,27.70
2018-07-13T16:10:25.681Z,28.00
2018-07-13T16:13:58.949Z,28.20
2018-07-13T16:17:32.203Z,28.60
2018-07-13T16:21:05.448Z,28.80
2018-07-13T16:24:38.701Z,29.10
2018-07-13T16:28:12.003Z,29.50
2018-07-13T16:31:45.192Z,29.50
2018-07-13T16:35:18.493Z,29.40
2018-07-13T16:38:51.788Z,29.30
2018-07-13T16:42:25.057Z,29.20
2018-07-13T16:45:58.356Z,29.10
2018-07-13T16:49:31.614Z,28.90
2018-07-13T16:53:04.875Z,28.70
2018-07-13T16:56:38.174Z,28.50
2018-07-13T17:00:11.476Z,28.30
2018-07-13T17:03:44.722Z,28.10
2018-07-13T17:10:50.969Z,27.80
2018-07-13T17:14:24.248Z,27.80
2018-07-13T17:17:57.550Z,27.80
2018-07-13T17:21:30.805Z,27.70
2018-07-13T17:25:04.069Z,27.70
2018-07-13T17:28:37.320Z,27.60
2018-07-13T17:32:10.556Z,27.50
2018-07-13T17:35:43.817Z,27.50
2018-07-13T17:39:17.060Z,27.50
2018-07-13T17:42:50.926Z,27.50
2018-07-13T17:46:24.076Z,27.50
2018-07-13T17:49:57.317Z,27.40
2018-07-13T17:53:30.556Z,27.40
2018-07-13T17:57:03.800Z,27.20
2018-07-13T18:00:37.107Z,27.10
2018-07-13T18:04:10.944Z,27.00
2018-07-13T18:11:17.238Z,26.80
2018-07-13T18:14:50.517Z,26.80
2018-07-13T18:18:23.747Z,26.70
2018-07-13T18:25:29.979Z,26.60
2018-07-13T18:29:03.233Z,26.60
2018-07-13T18:32:36.476Z,26.60
2018-07-13T18:36:09.720Z,26.60
2018-07-13T18:39:42.958Z,26.60
2018-07-13T18:43:16.206Z,26.60
2018-07-13T18:46:50.280Z,26.60
2018-07-13T18:50:23.539Z,26.60
2018-07-13T18:53:56.796Z,26.60
2018-07-13T18:57:30.047Z,26.50
2018-07-13T19:01:03.398Z,26.40
2018-07-13T19:04:36.665Z,26.30
2018-07-13T19:08:09.937Z,26.20
2018-07-13T19:11:43.172Z,26.10
2018-07-13T19:15:16.473Z,26.10
2018-07-13T19:18:49.720Z,25.90
2018-07-13T19:22:23.040Z,25.70
2018-07-13T19:25:56.295Z,25.50
2018-07-13T19:29:29.544Z,25.20
2018-07-13T19:33:02.788Z,24.90
2018-07-13T19:36:36.044Z,24.60
2018-07-13T19:40:09.274Z,24.50
2018-07-13T19:43:42.529Z,24.30
2018-07-13T19:47:15.819Z,24.20
2018-07-13T19:50:49.095Z,24.10
2018-07-13T19:54:22.320Z,23.90
2018-07-13T19:57:55.568Z,23.80
2018-07-13T20:01:28.812Z,23.70
2018-07-13T20:05:02.051Z,23.60
2018-07-13T20:08:35.330Z,23.60
2018-07-13T20:12:08.611Z,23.50
2018-07-13T20:15:41.888Z,23.50
2018-07-13T20:19:15.229Z,23.40
2018-07-13T20:22:48.509Z,23.30
2018-07-13T20:26:21.815Z,23.30
2018-07-13T20:29:55.026Z,23.10
2018-07-13T20:33:28.339Z,22.90
2018-07-13T20:37:01.572Z,22.70
2018-07-13T20:44:07.866Z,22.50
2018-07-13T20:47:41.155Z,22.40
2018-07-13T20:51:14.375Z,22.30
2018-07-13T20:54:47.632Z,22.20
2018-07-13T20:58:20.901Z,22.20
2018-07-13T21:01:54.157Z,22.10
2018-07-13T21:05:27.389Z,22.10
2018-07-13T21:09:00.652Z,22.00
2018-07-13T21:12:33.910Z,22.00
2018-07-13T21:16:07.236Z,22.00
2018-07-13T21:19:40.492Z,21.90
2018-07-13T21:23:13.763Z,21.90
2018-07-13T21:26:47.104Z,21.90
2018-07-13T21:30:20.265Z,21.90
2018-07-13T21:33:53.516Z,21.90
2018-07-13T21:37:26.776Z,21.80
2018-07-13T21:41:00.200Z,21.80
2018-07-13T21:44:33.453Z,21.90
2018-07-13T21:48:06.780Z,21.90
2018-07-13T21:51:40.031Z,21.90
2018-07-13T21:55:13.266Z,21.80
2018-07-13T21:58:47.245Z,21.80
2018-07-13T22:02:20.569Z,21.80
2018-07-13T22:05:53.792Z,21.70
2018-07-13T22:09:27.018Z,21.70
2018-07-13T22:13:00.274Z,21.60
2018-07-13T22:16:33.536Z,21.70
2018-07-13T22:20:06.789Z,21.60
2018-07-13T22:27:13.077Z,21.50
2018-07-13T22:34:19.316Z,21.30
2018-07-13T22:37:52.721Z,21.10
2018-07-13T22:41:25.980Z,21.00
2018-07-13T22:48:32.256Z,20.80
2018-07-13T22:52:05.573Z,20.80
2018-07-13T22:59:11.822Z,20.70
2018-07-13T23:02:45.069Z,20.60
2018-07-13T23:09:51.348Z,20.50
2018-07-13T23:13:24.891Z,20.40
2018-07-13T23:16:58.143Z,20.30
2018-07-13T23:20:31.391Z,20.30
2018-07-13T23:24:04.645Z,20.30
2018-07-13T23:27:37.904Z,20.30
2018-07-13T23:31:11.145Z,20.30
2018-07-13T23:34:44.376Z,20.30
2018-07-13T23:38:17.657Z,20.30
2018-07-13T23:41:50.901Z,20.30
2018-07-13T23:45:24.160Z,20.30
2018-07-13T23:48:57.409Z,20.30
2018-07-13T23:52:30.670Z,20.20
2018-07-13T23:56:03.939Z,20.20
2018-07-13T23:59:37.268Z,20.10
